CTV342 WADD-WAAA
Flight info
| Callsign | CTV342 |
|---|---|
| Flight time | 1h 0m |
| Altitude | 33000 |
| Route | PEDET W41 LIPOT |
| Aircraft | A320/M-SDE3FGHIRWY/LB1 |
Departure
| Time | 2026-04-22 00:17 |
|---|---|
| Airport | Denpasar I Gusti Ngurah Rai International Airport (WADD) |
Arrival
| Time | 2026-04-22 01:18 |
|---|---|
| Airport | Sultan Hasanuddin International Airport (WAAA) |
| Time | Latitude | Longitude | Altitude | Speed | Heading |
|---|---|---|---|---|---|
| 2026-04-22 00:00 | -8.74566 | 115.16340 | 33 ft | 0 kts | 358° |
| 2026-04-22 00:08 | -8.74568 | 115.16340 | 33 ft | 1 kts | 358° |
| 2026-04-22 00:09 | -8.74584 | 115.16341 | 33 ft | 3 kts | 356° |
| 2026-04-22 00:09 | -8.74604 | 115.16343 | 33 ft | 3 kts | 355° |
| 2026-04-22 00:09 | -8.74625 | 115.16345 | 30 ft | 3 kts | 352° |
| 2026-04-22 00:09 | -8.74645 | 115.16348 | 30 ft | 3 kts | 349° |
| 2026-04-22 00:10 | -8.74664 | 115.16352 | 30 ft | 3 kts | 342° |
| 2026-04-22 00:10 | -8.74683 | 115.16360 | 32 ft | 3 kts | 322° |
| 2026-04-22 00:10 | -8.74693 | 115.16371 | 29 ft | 2 kts | 276° |
| 2026-04-22 00:10 | -8.74694 | 115.16375 | 29 ft | 0 kts | 268° |
| 2026-04-22 00:13 | -8.74695 | 115.16353 | 29 ft | 4 kts | 268° |
| 2026-04-22 00:13 | -8.74696 | 115.16330 | 33 ft | 3 kts | 268° |
| 2026-04-22 00:13 | -8.74697 | 115.16301 | 33 ft | 9 kts | 268° |
| 2026-04-22 00:13 | -8.74699 | 115.16240 | 33 ft | 8 kts | 268° |
| 2026-04-22 00:14 | -8.74701 | 115.16174 | 33 ft | 10 kts | 268° |
| 2026-04-22 00:14 | -8.74705 | 115.16092 | 33 ft | 13 kts | 268° |
| 2026-04-22 00:14 | -8.74709 | 115.15988 | 33 ft | 16 kts | 268° |
| 2026-04-22 00:14 | -8.74713 | 115.15874 | 33 ft | 16 kts | 268° |
| 2026-04-22 00:15 | -8.74718 | 115.15760 | 32 ft | 16 kts | 268° |
| 2026-04-22 00:15 | -8.74722 | 115.15650 | 32 ft | 15 kts | 268° |
| 2026-04-22 00:15 | -8.74727 | 115.15548 | 32 ft | 14 kts | 268° |
| 2026-04-22 00:15 | -8.74731 | 115.15458 | 32 ft | 12 kts | 268° |
| 2026-04-22 00:16 | -8.74767 | 115.15395 | 32 ft | 10 kts | 209° |
| 2026-04-22 00:16 | -8.74840 | 115.15392 | 29 ft | 12 kts | 173° |
| 2026-04-22 00:16 | -8.74894 | 115.15450 | 29 ft | 17 kts | 92° |
| 2026-04-22 00:16 | -8.74881 | 115.15815 | 28 ft | 88 kts | 88° |
| 2026-04-22 00:17 | -8.74846 | 115.16643 | 28 ft | 146 kts | 88° |
| 2026-04-22 00:17 | -8.74796 | 115.17793 | 293 ft | 168 kts | 88° |
| 2026-04-22 00:17 | -8.74736 | 115.18969 | 943 ft | 168 kts | 87° |
| 2026-04-22 00:17 | -8.74677 | 115.20154 | 1520 ft | 173 kts | 87° |
| 2026-04-22 00:18 | -8.74626 | 115.21442 | 1791 ft | 195 kts | 87° |
| 2026-04-22 00:18 | -8.74571 | 115.22896 | 2040 ft | 219 kts | 87° |
| 2026-04-22 00:18 | -8.74508 | 115.24522 | 2383 ft | 243 kts | 87° |
| 2026-04-22 00:18 | -8.74439 | 115.26290 | 2911 ft | 258 kts | 87° |
| 2026-04-22 00:19 | -8.74370 | 115.28119 | 3716 ft | 262 kts | 86° |
| 2026-04-22 00:19 | -8.74299 | 115.29967 | 4536 ft | 265 kts | 86° |
| 2026-04-22 00:19 | -8.74226 | 115.31841 | 4881 ft | 267 kts | 86° |
| 2026-04-22 00:19 | -8.74153 | 115.33717 | 5140 ft | 270 kts | 86° |
| 2026-04-22 00:20 | -8.74076 | 115.35608 | 6026 ft | 269 kts | 86° |
| 2026-04-22 00:20 | -8.73998 | 115.37499 | 6830 ft | 271 kts | 86° |
| 2026-04-22 00:20 | -8.73916 | 115.39409 | 7590 ft | 273 kts | 86° |
| 2026-04-22 00:20 | -8.73836 | 115.41343 | 8346 ft | 276 kts | 86° |
| 2026-04-22 00:21 | -8.73757 | 115.43283 | 8854 ft | 281 kts | 86° |
| 2026-04-22 00:21 | -8.73676 | 115.45256 | 8990 ft | 281 kts | 86° |
| 2026-04-22 00:21 | -8.73594 | 115.47229 | 9014 ft | 280 kts | 86° |
| 2026-04-22 00:21 | -8.73461 | 115.49189 | 9017 ft | 279 kts | 78° |
| 2026-04-22 00:22 | -8.72874 | 115.51046 | 9014 ft | 278 kts | 63° |
| 2026-04-22 00:22 | -8.71785 | 115.52650 | 9024 ft | 278 kts | 47° |
| 2026-04-22 00:22 | -8.70413 | 115.54025 | 9021 ft | 278 kts | 45° |
| 2026-04-22 00:22 | -8.69035 | 115.55397 | 9022 ft | 278 kts | 45° |
| 2026-04-22 00:23 | -8.67658 | 115.56774 | 9026 ft | 278 kts | 45° |
| 2026-04-22 00:23 | -8.66283 | 115.58154 | 9023 ft | 278 kts | 45° |
| 2026-04-22 00:23 | -8.64868 | 115.59525 | 9475 ft | 282 kts | 44° |
| 2026-04-22 00:23 | -8.63418 | 115.60872 | 10234 ft | 284 kts | 43° |
| 2026-04-22 00:24 | -8.61903 | 115.62259 | 10505 ft | 305 kts | 43° |
| 2026-04-22 00:24 | -8.60269 | 115.63750 | 10647 ft | 328 kts | 43° |
| 2026-04-22 00:24 | -8.58549 | 115.65321 | 10773 ft | 349 kts | 43° |
| 2026-04-22 00:24 | -8.56702 | 115.67014 | 10880 ft | 368 kts | 43° |
| 2026-04-22 00:25 | -8.54776 | 115.68789 | 11156 ft | 380 kts | 43° |
| 2026-04-22 00:25 | -8.52812 | 115.70601 | 11651 ft | 384 kts | 43° |
| 2026-04-22 00:25 | -8.50829 | 115.72431 | 12189 ft | 387 kts | 43° |
| 2026-04-22 00:25 | -8.48832 | 115.74275 | 12735 ft | 390 kts | 43° |
| 2026-04-22 00:26 | -8.46818 | 115.76134 | 13274 ft | 393 kts | 43° |
| 2026-04-22 00:26 | -8.44794 | 115.78003 | 13798 ft | 396 kts | 43° |
| 2026-04-22 00:26 | -8.42764 | 115.79881 | 14252 ft | 399 kts | 43° |
| 2026-04-22 00:26 | -8.40710 | 115.81781 | 14708 ft | 402 kts | 43° |
| 2026-04-22 00:27 | -8.38645 | 115.83692 | 15158 ft | 405 kts | 43° |
| 2026-04-22 00:27 | -8.36558 | 115.85620 | 15604 ft | 407 kts | 43° |
| 2026-04-22 00:27 | -8.34456 | 115.87557 | 16033 ft | 410 kts | 43° |
| 2026-04-22 00:27 | -8.32341 | 115.89504 | 16448 ft | 413 kts | 43° |
| 2026-04-22 00:28 | -8.30236 | 115.91443 | 16842 ft | 416 kts | 43° |
| 2026-04-22 00:28 | -8.28088 | 115.93422 | 17237 ft | 419 kts | 43° |
| 2026-04-22 00:28 | -8.25929 | 115.95413 | 17617 ft | 422 kts | 43° |
| 2026-04-22 00:28 | -8.23755 | 115.97417 | 17968 ft | 425 kts | 43° |
| 2026-04-22 00:29 | -8.21565 | 115.99436 | 18312 ft | 428 kts | 43° |
| 2026-04-22 00:29 | -8.19360 | 116.01465 | 18617 ft | 430 kts | 43° |
| 2026-04-22 00:29 | -8.17144 | 116.03503 | 18930 ft | 432 kts | 43° |
| 2026-04-22 00:29 | -8.14919 | 116.05546 | 19234 ft | 434 kts | 43° |
| 2026-04-22 00:30 | -8.12684 | 116.07605 | 19536 ft | 435 kts | 43° |
| 2026-04-22 00:30 | -8.10442 | 116.09673 | 19808 ft | 438 kts | 43° |
| 2026-04-22 00:30 | -8.08184 | 116.11753 | 20111 ft | 439 kts | 43° |
| 2026-04-22 00:30 | -8.05912 | 116.13842 | 20379 ft | 441 kts | 43° |
| 2026-04-22 00:31 | -8.03642 | 116.15932 | 20653 ft | 443 kts | 43° |
| 2026-04-22 00:31 | -8.01358 | 116.18039 | 20918 ft | 445 kts | 43° |
| 2026-04-22 00:31 | -7.99067 | 116.20155 | 21144 ft | 448 kts | 43° |
| 2026-04-22 00:31 | -7.96766 | 116.22274 | 21409 ft | 449 kts | 43° |
| 2026-04-22 00:32 | -7.94442 | 116.24408 | 21630 ft | 451 kts | 43° |
| 2026-04-22 00:32 | -7.92122 | 116.26536 | 21887 ft | 452 kts | 43° |
| 2026-04-22 00:32 | -7.89818 | 116.28652 | 22102 ft | 454 kts | 43° |
| 2026-04-22 00:32 | -7.87479 | 116.30802 | 22296 ft | 456 kts | 43° |
| 2026-04-22 00:33 | -7.85130 | 116.32960 | 22512 ft | 457 kts | 43° |
| 2026-04-22 00:33 | -7.82772 | 116.35125 | 22710 ft | 459 kts | 43° |
| 2026-04-22 00:33 | -7.80407 | 116.37294 | 22902 ft | 460 kts | 43° |
| 2026-04-22 00:33 | -7.78035 | 116.39472 | 23091 ft | 461 kts | 43° |
| 2026-04-22 00:34 | -7.75660 | 116.41655 | 23261 ft | 463 kts | 43° |
| 2026-04-22 00:34 | -7.73278 | 116.43846 | 23454 ft | 464 kts | 43° |
| 2026-04-22 00:34 | -7.70888 | 116.46046 | 23592 ft | 465 kts | 43° |
| 2026-04-22 00:34 | -7.68494 | 116.48247 | 23740 ft | 467 kts | 43° |
| 2026-04-22 00:35 | -7.66092 | 116.50450 | 23895 ft | 467 kts | 43° |
| 2026-04-22 00:35 | -7.63683 | 116.52657 | 24017 ft | 469 kts | 43° |
| 2026-04-22 00:35 | -7.61261 | 116.54880 | 24157 ft | 470 kts | 43° |
| 2026-04-22 00:35 | -7.58846 | 116.57099 | 24292 ft | 471 kts | 43° |
| 2026-04-22 00:36 | -7.56418 | 116.59325 | 24423 ft | 472 kts | 43° |
| 2026-04-22 00:36 | -7.53988 | 116.61554 | 24555 ft | 473 kts | 43° |
| 2026-04-22 00:36 | -7.51562 | 116.63798 | 24661 ft | 474 kts | 45° |
| 2026-04-22 00:36 | -7.49350 | 116.66265 | 24779 ft | 475 kts | 50° |
| 2026-04-22 00:37 | -7.47221 | 116.68806 | 24900 ft | 475 kts | 50° |
| 2026-04-22 00:37 | -7.45088 | 116.71357 | 25032 ft | 476 kts | 50° |
| 2026-04-22 00:37 | -7.42988 | 116.73871 | 25190 ft | 476 kts | 50° |
| 2026-04-22 00:37 | -7.40855 | 116.76423 | 25346 ft | 476 kts | 50° |
| 2026-04-22 00:38 | -7.38723 | 116.78969 | 25506 ft | 476 kts | 50° |
| 2026-04-22 00:38 | -7.36594 | 116.81511 | 25678 ft | 475 kts | 50° |
| 2026-04-22 00:38 | -7.34459 | 116.84058 | 25841 ft | 475 kts | 50° |
| 2026-04-22 00:38 | -7.32331 | 116.86594 | 26037 ft | 474 kts | 50° |
| 2026-04-22 00:39 | -7.30200 | 116.89136 | 26202 ft | 474 kts | 50° |
| 2026-04-22 00:39 | -7.28073 | 116.91671 | 26378 ft | 475 kts | 50° |
| 2026-04-22 00:39 | -7.25942 | 116.94209 | 26574 ft | 474 kts | 50° |
| 2026-04-22 00:39 | -7.23806 | 116.96749 | 26739 ft | 475 kts | 50° |
| 2026-04-22 00:40 | -7.21671 | 116.99287 | 26946 ft | 474 kts | 50° |
| 2026-04-22 00:40 | -7.19536 | 117.01823 | 27132 ft | 474 kts | 50° |
| 2026-04-22 00:40 | -7.17410 | 117.04352 | 27344 ft | 473 kts | 50° |
| 2026-04-22 00:40 | -7.15285 | 117.06885 | 27573 ft | 473 kts | 50° |
| 2026-04-22 00:41 | -7.13166 | 117.09412 | 27777 ft | 472 kts | 50° |
| 2026-04-22 00:41 | -7.11049 | 117.11938 | 27999 ft | 472 kts | 50° |
| 2026-04-22 00:41 | -7.08930 | 117.14466 | 28230 ft | 471 kts | 50° |
| 2026-04-22 00:41 | -7.06818 | 117.16986 | 28449 ft | 471 kts | 50° |
| 2026-04-22 00:42 | -7.04727 | 117.19475 | 28684 ft | 470 kts | 50° |
| 2026-04-22 00:42 | -7.02610 | 117.21988 | 28904 ft | 470 kts | 50° |
| 2026-04-22 00:42 | -7.00495 | 117.24495 | 29154 ft | 469 kts | 50° |
| 2026-04-22 00:42 | -6.98384 | 117.27001 | 29391 ft | 469 kts | 50° |
| 2026-04-22 00:43 | -6.96276 | 117.29507 | 29613 ft | 469 kts | 50° |
| 2026-04-22 00:43 | -6.94170 | 117.32011 | 29860 ft | 468 kts | 51° |
| 2026-04-22 00:43 | -6.92070 | 117.34510 | 30075 ft | 468 kts | 51° |
| 2026-04-22 00:43 | -6.89965 | 117.37012 | 30269 ft | 468 kts | 50° |
| 2026-04-22 00:44 | -6.87863 | 117.39505 | 30486 ft | 467 kts | 50° |
| 2026-04-22 00:44 | -6.85760 | 117.42000 | 30665 ft | 468 kts | 50° |
| 2026-04-22 00:44 | -6.83651 | 117.44500 | 30875 ft | 467 kts | 50° |
| 2026-04-22 00:44 | -6.81546 | 117.47000 | 31074 ft | 467 kts | 50° |
| 2026-04-22 00:45 | -6.79446 | 117.49493 | 31305 ft | 467 kts | 50° |
| 2026-04-22 00:45 | -6.77352 | 117.51978 | 31537 ft | 466 kts | 50° |
| 2026-04-22 00:45 | -6.75256 | 117.54466 | 31737 ft | 466 kts | 50° |
| 2026-04-22 00:45 | -6.73165 | 117.56953 | 31967 ft | 465 kts | 50° |
| 2026-04-22 00:46 | -6.71079 | 117.59439 | 32198 ft | 465 kts | 50° |
| 2026-04-22 00:46 | -6.68998 | 117.61920 | 32447 ft | 464 kts | 50° |
| 2026-04-22 00:46 | -6.66751 | 117.64248 | 32683 ft | 464 kts | 43° |
| 2026-04-22 00:46 | -6.64368 | 117.66438 | 32847 ft | 464 kts | 43° |
| 2026-04-22 00:47 | -6.61973 | 117.68643 | 32900 ft | 468 kts | 43° |
| 2026-04-22 00:47 | -6.57178 | 117.73070 | 32898 ft | 472 kts | 43° |
| 2026-04-22 00:48 | -6.52340 | 117.77549 | 32898 ft | 473 kts | 43° |
| 2026-04-22 00:48 | -6.47497 | 117.82027 | 32899 ft | 473 kts | 43° |
| 2026-04-22 00:49 | -6.42659 | 117.86512 | 32895 ft | 473 kts | 43° |
| 2026-04-22 00:49 | -6.37811 | 117.90988 | 32892 ft | 473 kts | 43° |
| 2026-04-22 00:50 | -6.33781 | 117.94702 | 32888 ft | 473 kts | 43° |
| 2026-04-22 00:50 | -6.28939 | 117.99177 | 32888 ft | 473 kts | 43° |
| 2026-04-22 00:51 | -6.24096 | 118.03646 | 32891 ft | 473 kts | 43° |
| 2026-04-22 00:51 | -6.19247 | 118.08114 | 32890 ft | 473 kts | 43° |
| 2026-04-22 00:52 | -6.14406 | 118.12583 | 32892 ft | 472 kts | 43° |
| 2026-04-22 00:52 | -6.09569 | 118.17057 | 32892 ft | 472 kts | 43° |
| 2026-04-22 00:53 | -6.04727 | 118.21523 | 32892 ft | 472 kts | 43° |
| 2026-04-22 00:53 | -5.99912 | 118.25949 | 32897 ft | 472 kts | 43° |
| 2026-04-22 00:54 | -5.95073 | 118.30410 | 32896 ft | 472 kts | 43° |
| 2026-04-22 00:54 | -5.90243 | 118.34867 | 32896 ft | 471 kts | 43° |
| 2026-04-22 00:55 | -5.85408 | 118.39324 | 32885 ft | 472 kts | 43° |
| 2026-04-22 00:55 | -5.78145 | 118.46001 | 32881 ft | 472 kts | 43° |
| 2026-04-22 00:56 | -5.73362 | 118.50421 | 32543 ft | 456 kts | 43° |
| 2026-04-22 00:56 | -5.71057 | 118.52556 | 32300 ft | 444 kts | 44° |
| 2026-04-22 00:56 | -5.68811 | 118.54633 | 32058 ft | 433 kts | 43° |
| 2026-04-22 00:57 | -5.66618 | 118.56658 | 31817 ft | 423 kts | 43° |
| 2026-04-22 00:57 | -5.64473 | 118.58639 | 31580 ft | 415 kts | 44° |
| 2026-04-22 00:57 | -5.62356 | 118.60595 | 31344 ft | 411 kts | 43° |
| 2026-04-22 00:57 | -5.60257 | 118.62534 | 31112 ft | 409 kts | 43° |
| 2026-04-22 00:58 | -5.58170 | 118.64460 | 30879 ft | 407 kts | 43° |
| 2026-04-22 00:58 | -5.56090 | 118.66376 | 30649 ft | 405 kts | 43° |
| 2026-04-22 00:58 | -5.54020 | 118.68285 | 30224 ft | 405 kts | 43° |
| 2026-04-22 00:58 | -5.51919 | 118.70223 | 29466 ft | 410 kts | 43° |
| 2026-04-22 00:59 | -5.49841 | 118.72142 | 29131 ft | 403 kts | 43° |
| 2026-04-22 00:59 | -5.47792 | 118.74035 | 28718 ft | 398 kts | 43° |
| 2026-04-22 00:59 | -5.45786 | 118.75888 | 28275 ft | 395 kts | 43° |
| 2026-04-22 00:59 | -5.43774 | 118.77745 | 27843 ft | 391 kts | 43° |
| 2026-04-22 01:00 | -5.41778 | 118.79586 | 27397 ft | 388 kts | 43° |
| 2026-04-22 01:00 | -5.39794 | 118.81415 | 26972 ft | 385 kts | 43° |
| 2026-04-22 01:00 | -5.37828 | 118.83227 | 26553 ft | 383 kts | 43° |
| 2026-04-22 01:00 | -5.35875 | 118.85026 | 26119 ft | 380 kts | 43° |
| 2026-04-22 01:01 | -5.33936 | 118.86815 | 25705 ft | 377 kts | 42° |
| 2026-04-22 01:01 | -5.32044 | 118.88623 | 25280 ft | 375 kts | 49° |
| 2026-04-22 01:01 | -5.30568 | 118.90757 | 24870 ft | 372 kts | 63° |
| 2026-04-22 01:01 | -5.29697 | 118.93188 | 24453 ft | 371 kts | 78° |
| 2026-04-22 01:02 | -5.29467 | 118.95759 | 24032 ft | 370 kts | 89° |
| 2026-04-22 01:02 | -5.29468 | 118.98338 | 23599 ft | 369 kts | 89° |
| 2026-04-22 01:02 | -5.29464 | 119.00905 | 23146 ft | 367 kts | 89° |
| 2026-04-22 01:02 | -5.29457 | 119.03454 | 22696 ft | 364 kts | 89° |
| 2026-04-22 01:03 | -5.29449 | 119.05986 | 22270 ft | 361 kts | 89° |
| 2026-04-22 01:03 | -5.29441 | 119.08495 | 21856 ft | 358 kts | 89° |
| 2026-04-22 01:03 | -5.29432 | 119.10987 | 21484 ft | 354 kts | 89° |
| 2026-04-22 01:03 | -5.29421 | 119.13400 | 21055 ft | 345 kts | 89° |
| 2026-04-22 01:04 | -5.29408 | 119.15843 | 20116 ft | 353 kts | 89° |
| 2026-04-22 01:04 | -5.29394 | 119.18302 | 19235 ft | 360 kts | 89° |
| 2026-04-22 01:04 | -5.29383 | 119.20836 | 18360 ft | 365 kts | 89° |
| 2026-04-22 01:04 | -5.29284 | 119.23388 | 17389 ft | 368 kts | 80° |
| 2026-04-22 01:05 | -5.28447 | 119.25809 | 16422 ft | 370 kts | 60° |
| 2026-04-22 01:05 | -5.26803 | 119.27789 | 15480 ft | 373 kts | 40° |
| 2026-04-22 01:05 | -5.24547 | 119.29047 | 14794 ft | 371 kts | 19° |
| 2026-04-22 01:05 | -5.22020 | 119.29412 | 14198 ft | 367 kts | 359° |
| 2026-04-22 01:06 | -5.19549 | 119.28855 | 13628 ft | 365 kts | 338° |
| 2026-04-22 01:06 | -5.17457 | 119.27457 | 13024 ft | 362 kts | 317° |
| 2026-04-22 01:06 | -5.16016 | 119.25415 | 12424 ft | 359 kts | 296° |
| 2026-04-22 01:06 | -5.15360 | 119.23048 | 12058 ft | 348 kts | 277° |
| 2026-04-22 01:07 | -5.15454 | 119.20687 | 11592 ft | 341 kts | 258° |
| 2026-04-22 01:07 | -5.16272 | 119.18494 | 11176 ft | 332 kts | 239° |
| 2026-04-22 01:07 | -5.17663 | 119.16716 | 10869 ft | 318 kts | 221° |
| 2026-04-22 01:07 | -5.19429 | 119.15462 | 10564 ft | 306 kts | 204° |
| 2026-04-22 01:08 | -5.21416 | 119.14775 | 10259 ft | 300 kts | 187° |
| 2026-04-22 01:08 | -5.23479 | 119.14746 | 9862 ft | 297 kts | 167° |
| 2026-04-22 01:08 | -5.25396 | 119.15480 | 9357 ft | 295 kts | 144° |
| 2026-04-22 01:08 | -5.26868 | 119.16864 | 8989 ft | 288 kts | 123° |
| 2026-04-22 01:09 | -5.27719 | 119.18641 | 8650 ft | 281 kts | 103° |
| 2026-04-22 01:09 | -5.27952 | 119.20565 | 8318 ft | 276 kts | 92° |
| 2026-04-22 01:09 | -5.28065 | 119.22477 | 7989 ft | 273 kts | 92° |
| 2026-04-22 01:09 | -5.28179 | 119.24368 | 7668 ft | 270 kts | 92° |
| 2026-04-22 01:10 | -5.28292 | 119.26237 | 7354 ft | 267 kts | 92° |
| 2026-04-22 01:10 | -5.28404 | 119.28081 | 7040 ft | 263 kts | 92° |
| 2026-04-22 01:10 | -5.28513 | 119.29900 | 6735 ft | 259 kts | 92° |
| 2026-04-22 01:10 | -5.28620 | 119.31675 | 6548 ft | 251 kts | 92° |
| 2026-04-22 01:11 | -5.28723 | 119.33393 | 6356 ft | 243 kts | 92° |
| 2026-04-22 01:11 | -5.28823 | 119.35061 | 5950 ft | 237 kts | 92° |
| 2026-04-22 01:11 | -5.28923 | 119.36697 | 5514 ft | 233 kts | 92° |
| 2026-04-22 01:11 | -5.29020 | 119.38305 | 5083 ft | 229 kts | 92° |
| 2026-04-22 01:12 | -5.29115 | 119.39873 | 4659 ft | 226 kts | 92° |
| 2026-04-22 01:12 | -5.29023 | 119.41416 | 4294 ft | 217 kts | 75° |
| 2026-04-22 01:12 | -5.28450 | 119.42742 | 4214 ft | 201 kts | 57° |
| 2026-04-22 01:12 | -5.27545 | 119.43769 | 3986 ft | 194 kts | 40° |
| 2026-04-22 01:13 | -5.26424 | 119.44482 | 3756 ft | 189 kts | 31° |
| 2026-04-22 01:13 | -5.25302 | 119.45130 | 3526 ft | 183 kts | 31° |
| 2026-04-22 01:13 | -5.24208 | 119.45762 | 3298 ft | 179 kts | 31° |
| 2026-04-22 01:13 | -5.23141 | 119.46378 | 3077 ft | 175 kts | 31° |
| 2026-04-22 01:14 | -5.22100 | 119.46979 | 2848 ft | 169 kts | 31° |
| 2026-04-22 01:14 | -5.21116 | 119.47546 | 2651 ft | 158 kts | 31° |
| 2026-04-22 01:14 | -5.20186 | 119.48082 | 2442 ft | 150 kts | 30° |
| 2026-04-22 01:14 | -5.19294 | 119.48597 | 2270 ft | 146 kts | 30° |
| 2026-04-22 01:15 | -5.18429 | 119.49096 | 2083 ft | 144 kts | 30° |
| 2026-04-22 01:15 | -5.17562 | 119.49596 | 1886 ft | 143 kts | 29° |
| 2026-04-22 01:15 | -5.16700 | 119.50093 | 1713 ft | 143 kts | 30° |
| 2026-04-22 01:15 | -5.15841 | 119.50589 | 1531 ft | 142 kts | 31° |
| 2026-04-22 01:16 | -5.14982 | 119.51084 | 1330 ft | 142 kts | 30° |
| 2026-04-22 01:16 | -5.14127 | 119.51577 | 1151 ft | 142 kts | 29° |
| 2026-04-22 01:16 | -5.13275 | 119.52068 | 974 ft | 141 kts | 28° |
| 2026-04-22 01:16 | -5.12421 | 119.52558 | 784 ft | 143 kts | 29° |
| 2026-04-22 01:17 | -5.11563 | 119.53058 | 585 ft | 142 kts | 30° |
| 2026-04-22 01:17 | -5.10704 | 119.53553 | 417 ft | 142 kts | 30° |
| 2026-04-22 01:17 | -5.09852 | 119.54048 | 243 ft | 141 kts | 29° |
| 2026-04-22 01:17 | -5.09006 | 119.54531 | 56 ft | 137 kts | 30° |
| 2026-04-22 01:18 | -5.08283 | 119.54949 | 39 ft | 98 kts | 30° |
| 2026-04-22 01:18 | -5.07844 | 119.55204 | 42 ft | 36 kts | 30° |
| 2026-04-22 01:18 | -5.07702 | 119.55243 | 42 ft | 15 kts | 304° |
| 2026-04-22 01:18 | -5.07661 | 119.55149 | 38 ft | 11 kts | 295° |
| 2026-04-22 01:19 | -5.07632 | 119.55096 | 41 ft | 8 kts | 303° |
| 2026-04-22 01:19 | -5.07605 | 119.55054 | 41 ft | 7 kts | 303° |
| 2026-04-22 01:19 | -5.07583 | 119.55010 | 41 ft | 9 kts | 284° |
| 2026-04-22 01:19 | -5.07589 | 119.54949 | 41 ft | 8 kts | 261° |
| 2026-04-22 01:20 | -5.07579 | 119.54899 | 41 ft | 7 kts | 297° |
| 2026-04-22 01:20 | -5.07558 | 119.54862 | 41 ft | 5 kts | 300° |
| 2026-04-22 01:20 | -5.07552 | 119.54853 | 39 ft | 0 kts | 300° |